Ventura, CA (93003)

10:19 AM PST on December 20, 2014 (GMT -0800)
Midtown | Change Station
CLOSE
Current Station
Personal Weather Station
Location: Ventura, CA
Elevation: 151 ft
Nearby Weather Stations
Active Advisory: High Surf Advisory

Elev 151 ft 34.27 °N, 119.24 °W | Updated 4 minutes ago

Overcast
Overcast
58.7 °F
Feels Like 58.7 °F
N
4.0
Wind Variable Wind from ENE
Gusts 7.0 mph

Today
High -- | Low -- °F
--% Chance of Precip.
Yesterday
High -- | Low -- °F
Precip. -- in
6:58 AM 4:50 PM
Waning Crescent, 2% visible
Pressure 30.19 in
Visibility 10.0 miles
Clouds Overcast 1700 ft
Dew Point 49 °F
Humidity 71%
Rainfall 0.00 in
Snow Depth Not available.
UV 1 out of 12
Pollen 4.10 out of 12
Air Quality Not available.
Flu Activity Not available.
METAR KOXR 201751Z 04006KT 10SM OVC017 13/08 A3019 RMK AO2 SLP223 T01330078 10139 20106 50010

More Conditions Fewer Conditions

Pressure 30.19 in
Visibility 10.0 miles
Clouds Overcast 1700 ft
Dew Point 49 °F
Humidity 71%
Rainfall 0.00 in
Snow Depth Not available.
UV 1 out of 12
Pollen 4.10 out of 12
Air Quality Not available.
Flu Activity Not available.
METAR KOXR 201751Z 04006KT 10SM OVC017 13/08 A3019 RMK AO2 SLP223 T01330078 10139 20106 50010

More Conditions Fewer Conditions

10-Day Weather Forecast

Almanac

Astronomy

Dec. 20, 2014 Rise Set
Actual Time
Civil Twilight
Nautical Twilight
Astronomical Twilight
Moon
Length of Visible Light
Length of Day
Tomorrow will be .
, % of the Moon is Illuminated

Today's Extremes

State Highs State Lows

Community

WunderPhotos

Upload Photos

1,779,237 photos uploaded!

WunderBlogs® & News

Nearby

Air Quality

  Air Quality AQ Index Pollutant
Not available.

Snow Depth

Station Depth Elevation

Earthquake Activity

City Distance Mag. Time & Date
Minimum magnitude displayed is 2.5.

Coastal Water Temperatures

Place Temperature

Nearby Weather Stations